sensor_id;sensor_type;location;lat;lon;timestamp;temperature;humidity
47090;DHT22;32840;52.516;13.294;2024-01-15T00:01:54;4.60;99.90
47090;DHT22;32840;52.516;13.294;2024-01-15T00:04:40;4.60;99.90
47090;DHT22;32840;52.516;13.294;2024-01-15T00:07:25;4.50;99.90
47090;DHT22;32840;52.516;13.294;2024-01-15T00:10:11;4.40;99.90
47090;DHT22;32840;52.516;13.294;2024-01-15T00:12:55;4.50;99.90
47090;DHT22;32840;52.516;13.294;2024-01-15T00:15:46;4.50;99.90
47090;DHT22;32840;52.516;13.294;2024-01-15T00:18:31;4.50;99.90
47090;DHT22;32840;52.516;13.294;2024-01-15T00:21:16;4.40;99.90
47090;DHT22;32840;52.516;13.294;2024-01-15T00:24:00;4.40;99.90
47090;DHT22;32840;52.516;13.294;2024-01-15T00:26:45;4.40;99.90
47090;DHT22;32840;52.516;13.294;2024-01-15T00:29:30;4.40;99.90
47090;DHT22;32840;52.516;13.294;2024-01-15T00:32:17;4.40;99.90
47090;DHT22;32840;52.516;13.294;2024-01-15T00:35:02;4.50;99.90
47090;DHT22;32840;52.516;13.294;2024-01-15T00:37:48;4.40;99.90
47090;DHT22;32840;52.516;13.294;2024-01-15T00:40:35;4.40;99.90
47090;DHT22;32840;52.516;13.294;2024-01-15T00:43:28;4.40;99.90
47090;DHT22;32840;52.516;13.294;2024-01-15T00:46:13;4.40;99.90
47090;DHT22;32840;52.516;13.294;2024-01-15T00:48:58;4.40;99.90
47090;DHT22;32840;52.516;13.294;2024-01-15T00:51:44;4.40;99.90
47090;DHT22;32840;52.516;13.294;2024-01-15T00:54:29;4.50;99.90
47090;DHT22;32840;52.516;13.294;2024-01-15T00:57:20;4.50;99.90
47090;DHT22;32840;52.516;13.294;2024-01-15T01:00:06;4.50;99.90
47090;DHT22;32840;52.516;13.294;2024-01-15T01:02:54;4.40;99.90
47090;DHT22;32840;52.516;13.294;2024-01-15T01:05:39;4.50;99.90
47090;DHT22;32840;52.516;13.294;2024-01-15T01:08:24;4.50;99.90
47090;DHT22;32840;52.516;13.294;2024-01-15T01:11:13;4.50;99.90
47090;DHT22;32840;52.516;13.294;2024-01-15T01:13:58;4.40;99.90
47090;DHT22;32840;52.516;13.294;2024-01-15T01:16:44;4.40;99.90
47090;DHT22;32840;52.516;13.294;2024-01-15T01:19:29;4.40;99.90
47090;DHT22;32840;52.516;13.294;2024-01-15T01:22:15;4.30;99.90
47090;DHT22;32840;52.516;13.294;2024-01-15T01:24:59;4.30;99.90
47090;DHT22;32840;52.516;13.294;2024-01-15T01:27:44;4.20;99.90
47090;DHT22;32840;52.516;13.294;2024-01-15T01:30:29;4.30;99.90
47090;DHT22;32840;52.516;13.294;2024-01-15T01:33:20;4.20;99.90
47090;DHT22;32840;52.516;13.294;2024-01-15T01:36:09;4.20;99.90
47090;DHT22;32840;52.516;13.294;2024-01-15T01:38:57;4.20;99.90
47090;DHT22;32840;52.516;13.294;2024-01-15T01:41:43;4.10;99.90
47090;DHT22;32840;52.516;13.294;2024-01-15T01:44:28;4.10;99.90
47090;DHT22;32840;52.516;13.294;2024-01-15T01:47:14;4.10;99.90
47090;DHT22;32840;52.516;13.294;2024-01-15T01:49:59;4.10;99.90
47090;DHT22;32840;52.516;13.294;2024-01-15T01:52:45;4.00;99.90
47090;DHT22;32840;52.516;13.294;2024-01-15T01:55:36;4.00;99.90
47090;DHT22;32840;52.516;13.294;2024-01-15T01:58:28;3.90;99.90
47090;DHT22;32840;52.516;13.294;2024-01-15T02:01:14;3.90;99.90
47090;DHT22;32840;52.516;13.294;2024-01-15T02:04:03;3.90;99.90
47090;DHT22;32840;52.516;13.294;2024-01-15T02:06:48;3.90;99.90
47090;DHT22;32840;52.516;13.294;2024-01-15T02:09:34;3.80;99.90
47090;DHT22;32840;52.516;13.294;2024-01-15T02:12:21;3.70;99.90
47090;DHT22;32840;52.516;13.294;2024-01-15T02:15:07;3.70;99.90
47090;DHT22;32840;52.516;13.294;2024-01-15T02:18:07;3.60;99.90
47090;DHT22;32840;52.516;13.294;2024-01-15T02:20:52;3.60;99.90
47090;DHT22;32840;52.516;13.294;2024-01-15T02:23:39;3.70;99.90
47090;DHT22;32840;52.516;13.294;2024-01-15T02:26:23;3.70;99.90
47090;DHT22;32840;52.516;13.294;2024-01-15T02:29:09;3.70;99.90
47090;DHT22;32840;52.516;13.294;2024-01-15T02:31:54;3.70;99.90
47090;DHT22;32840;52.516;13.294;2024-01-15T02:34:38;3.70;99.90
47090;DHT22;32840;52.516;13.294;2024-01-15T02:37:23;3.80;99.90
47090;DHT22;32840;52.516;13.294;2024-01-15T02:40:08;3.80;99.90
47090;DHT22;32840;52.516;13.294;2024-01-15T02:42:53;3.80;99.90
47090;DHT22;32840;52.516;13.294;2024-01-15T02:45:38;3.80;99.90
47090;DHT22;32840;52.516;13.294;2024-01-15T02:48:24;3.80;99.90
47090;DHT22;32840;52.516;13.294;2024-01-15T02:51:09;3.80;99.90
47090;DHT22;32840;52.516;13.294;2024-01-15T02:53:55;3.70;99.90
47090;DHT22;32840;52.516;13.294;2024-01-15T02:56:40;3.70;99.90
47090;DHT22;32840;52.516;13.294;2024-01-15T02:59:25;3.80;99.90
47090;DHT22;32840;52.516;13.294;2024-01-15T03:02:10;3.90;99.90
47090;DHT22;32840;52.516;13.294;2024-01-15T03:04:55;3.80;99.90
47090;DHT22;32840;52.516;13.294;2024-01-15T03:07:40;3.90;99.90
47090;DHT22;32840;52.516;13.294;2024-01-15T03:10:26;4.00;99.90
47090;DHT22;32840;52.516;13.294;2024-01-15T03:13:11;3.90;99.90
47090;DHT22;32840;52.516;13.294;2024-01-15T03:15:56;4.00;99.90
47090;DHT22;32840;52.516;13.294;2024-01-15T03:18:41;3.90;99.90
47090;DHT22;32840;52.516;13.294;2024-01-15T03:21:26;3.90;99.90
47090;DHT22;32840;52.516;13.294;2024-01-15T03:24:11;3.90;99.90
47090;DHT22;32840;52.516;13.294;2024-01-15T03:26:57;3.90;99.90
47090;DHT22;32840;52.516;13.294;2024-01-15T03:29:42;4.00;99.90
47090;DHT22;32840;52.516;13.294;2024-01-15T03:32:27;4.00;99.90
47090;DHT22;32840;52.516;13.294;2024-01-15T03:35:12;4.00;99.90
47090;DHT22;32840;52.516;13.294;2024-01-15T03:37:56;4.00;99.90
47090;DHT22;32840;52.516;13.294;2024-01-15T03:40:41;3.90;99.90
47090;DHT22;32840;52.516;13.294;2024-01-15T03:43:27;4.00;99.90
47090;DHT22;32840;52.516;13.294;2024-01-15T03:46:12;4.00;99.90
47090;DHT22;32840;52.516;13.294;2024-01-15T03:48:58;4.10;99.90
47090;DHT22;32840;52.516;13.294;2024-01-15T03:51:43;4.00;99.90
47090;DHT22;32840;52.516;13.294;2024-01-15T03:54:28;4.00;99.90
47090;DHT22;32840;52.516;13.294;2024-01-15T03:57:13;3.90;99.90
47090;DHT22;32840;52.516;13.294;2024-01-15T03:59:57;4.00;99.90
47090;DHT22;32840;52.516;13.294;2024-01-15T04:02:43;4.00;99.90
47090;DHT22;32840;52.516;13.294;2024-01-15T04:05:29;4.10;99.90
47090;DHT22;32840;52.516;13.294;2024-01-15T04:08:14;4.10;99.90
47090;DHT22;32840;52.516;13.294;2024-01-15T04:10:59;4.00;99.90
47090;DHT22;32840;52.516;13.294;2024-01-15T04:13:44;4.00;99.90
47090;DHT22;32840;52.516;13.294;2024-01-15T04:16:30;4.00;99.90
47090;DHT22;32840;52.516;13.294;2024-01-15T04:19:15;4.00;99.90
47090;DHT22;32840;52.516;13.294;2024-01-15T04:22:00;4.10;99.90
47090;DHT22;32840;52.516;13.294;2024-01-15T04:24:45;4.10;99.90
47090;DHT22;32840;52.516;13.294;2024-01-15T04:27:30;4.00;99.90
47090;DHT22;32840;52.516;13.294;2024-01-15T04:30:15;4.00;99.90
47090;DHT22;32840;52.516;13.294;2024-01-15T04:33:01;4.10;99.90
47090;DHT22;32840;52.516;13.294;2024-01-15T04:35:46;4.10;99.90
47090;DHT22;32840;52.516;13.294;2024-01-15T04:38:31;4.20;99.90
47090;DHT22;32840;52.516;13.294;2024-01-15T04:41:16;4.10;99.90
47090;DHT22;32840;52.516;13.294;2024-01-15T04:44:03;4.10;99.90
47090;DHT22;32840;52.516;13.294;2024-01-15T04:46:47;4.00;99.90
47090;DHT22;32840;52.516;13.294;2024-01-15T04:49:32;4.10;99.90
47090;DHT22;32840;52.516;13.294;2024-01-15T04:52:17;4.10;99.90
47090;DHT22;32840;52.516;13.294;2024-01-15T04:55:03;4.00;99.90
47090;DHT22;32840;52.516;13.294;2024-01-15T04:57:50;3.90;99.90
47090;DHT22;32840;52.516;13.294;2024-01-15T05:00:35;4.00;99.90
47090;DHT22;32840;52.516;13.294;2024-01-15T05:03:20;4.00;99.90
47090;DHT22;32840;52.516;13.294;2024-01-15T05:06:06;4.10;99.90
47090;DHT22;32840;52.516;13.294;2024-01-15T05:08:51;4.10;99.90
47090;DHT22;32840;52.516;13.294;2024-01-15T05:11:36;4.00;99.90
47090;DHT22;32840;52.516;13.294;2024-01-15T05:14:23;4.10;99.90
47090;DHT22;32840;52.516;13.294;2024-01-15T05:17:11;4.10;99.90
47090;DHT22;32840;52.516;13.294;2024-01-15T05:19:56;4.10;99.90
47090;DHT22;32840;52.516;13.294;2024-01-15T05:22:44;4.10;99.90
47090;DHT22;32840;52.516;13.294;2024-01-15T05:25:30;4.20;99.90
47090;DHT22;32840;52.516;13.294;2024-01-15T05:28:19;4.20;99.90
47090;DHT22;32840;52.516;13.294;2024-01-15T05:31:04;4.20;99.90
47090;DHT22;32840;52.516;13.294;2024-01-15T05:33:52;4.20;99.90
47090;DHT22;32840;52.516;13.294;2024-01-15T05:36:38;4.20;99.90
47090;DHT22;32840;52.516;13.294;2024-01-15T05:39:23;4.30;99.90
47090;DHT22;32840;52.516;13.294;2024-01-15T05:42:09;4.30;99.90
47090;DHT22;32840;52.516;13.294;2024-01-15T05:44:55;4.20;99.90
47090;DHT22;32840;52.516;13.294;2024-01-15T05:47:40;4.30;99.90
47090;DHT22;32840;52.516;13.294;2024-01-15T05:50:25;4.30;99.90
47090;DHT22;32840;52.516;13.294;2024-01-15T05:53:13;4.30;99.90
47090;DHT22;32840;52.516;13.294;2024-01-15T05:56:00;4.40;99.90
47090;DHT22;32840;52.516;13.294;2024-01-15T05:58:45;4.30;99.90
47090;DHT22;32840;52.516;13.294;2024-01-15T06:01:30;4.30;99.90
47090;DHT22;32840;52.516;13.294;2024-01-15T06:04:15;4.30;99.90
47090;DHT22;32840;52.516;13.294;2024-01-15T06:07:00;4.20;99.90
47090;DHT22;32840;52.516;13.294;2024-01-15T06:09:45;4.20;99.90
47090;DHT22;32840;52.516;13.294;2024-01-15T06:12:30;4.20;99.90
47090;DHT22;32840;52.516;13.294;2024-01-15T06:15:15;4.20;99.90
47090;DHT22;32840;52.516;13.294;2024-01-15T06:18:00;4.20;99.90
47090;DHT22;32840;52.516;13.294;2024-01-15T06:20:45;4.20;99.90
47090;DHT22;32840;52.516;13.294;2024-01-15T06:23:29;4.20;99.90
47090;DHT22;32840;52.516;13.294;2024-01-15T06:26:14;4.20;99.90
47090;DHT22;32840;52.516;13.294;2024-01-15T06:28:59;4.10;99.90
47090;DHT22;32840;52.516;13.294;2024-01-15T06:31:44;4.20;99.90
47090;DHT22;32840;52.516;13.294;2024-01-15T06:34:29;4.20;99.90
47090;DHT22;32840;52.516;13.294;2024-01-15T06:37:14;4.30;99.90
47090;DHT22;32840;52.516;13.294;2024-01-15T06:39:59;4.30;99.90
47090;DHT22;32840;52.516;13.294;2024-01-15T06:42:44;4.30;99.90
47090;DHT22;32840;52.516;13.294;2024-01-15T06:45:29;4.40;99.90
47090;DHT22;32840;52.516;13.294;2024-01-15T06:48:15;4.30;99.90
47090;DHT22;32840;52.516;13.294;2024-01-15T06:51:01;4.30;99.90
47090;DHT22;32840;52.516;13.294;2024-01-15T06:53:45;4.30;99.90
47090;DHT22;32840;52.516;13.294;2024-01-15T06:56:33;4.40;99.90
47090;DHT22;32840;52.516;13.294;2024-01-15T06:59:21;4.40;99.90
47090;DHT22;32840;52.516;13.294;2024-01-15T07:02:13;4.40;99.90
47090;DHT22;32840;52.516;13.294;2024-01-15T07:04:58;4.40;99.90
47090;DHT22;32840;52.516;13.294;2024-01-15T07:07:43;4.50;99.90
47090;DHT22;32840;52.516;13.294;2024-01-15T07:10:28;4.40;99.90
47090;DHT22;32840;52.516;13.294;2024-01-15T07:13:13;4.50;99.90
47090;DHT22;32840;52.516;13.294;2024-01-15T07:15:58;4.50;99.90
47090;DHT22;32840;52.516;13.294;2024-01-15T07:18:43;4.60;99.90
47090;DHT22;32840;52.516;13.294;2024-01-15T07:21:28;4.60;99.90
47090;DHT22;32840;52.516;13.294;2024-01-15T07:24:12;4.60;99.90
47090;DHT22;32840;52.516;13.294;2024-01-15T07:26:57;4.60;99.90
47090;DHT22;32840;52.516;13.294;2024-01-15T07:29:42;4.60;99.90
47090;DHT22;32840;52.516;13.294;2024-01-15T07:32:27;4.50;99.90
47090;DHT22;32840;52.516;13.294;2024-01-15T07:35:17;4.60;99.90
47090;DHT22;32840;52.516;13.294;2024-01-15T07:38:02;4.60;99.90
47090;DHT22;32840;52.516;13.294;2024-01-15T07:40:47;4.60;99.90
47090;DHT22;32840;52.516;13.294;2024-01-15T07:43:33;4.70;99.90
47090;DHT22;32840;52.516;13.294;2024-01-15T07:46:18;4.60;99.90
47090;DHT22;32840;52.516;13.294;2024-01-15T07:49:03;4.60;99.90
47090;DHT22;32840;52.516;13.294;2024-01-15T07:51:51;4.60;99.90
47090;DHT22;32840;52.516;13.294;2024-01-15T07:54:36;4.60;99.90
47090;DHT22;32840;52.516;13.294;2024-01-15T07:57:22;4.60;99.90
47090;DHT22;32840;52.516;13.294;2024-01-15T08:00:07;4.50;99.90
47090;DHT22;32840;52.516;13.294;2024-01-15T08:02:55;4.40;99.90
47090;DHT22;32840;52.516;13.294;2024-01-15T08:05:39;4.40;99.90
47090;DHT22;32840;52.516;13.294;2024-01-15T08:08:32;4.40;99.90
47090;DHT22;32840;52.516;13.294;2024-01-15T08:11:16;4.50;99.90
47090;DHT22;32840;52.516;13.294;2024-01-15T08:14:01;4.50;99.90
47090;DHT22;32840;52.516;13.294;2024-01-15T08:16:47;4.60;99.90
47090;DHT22;32840;52.516;13.294;2024-01-15T08:19:32;4.60;99.90
47090;DHT22;32840;52.516;13.294;2024-01-15T08:22:17;4.60;99.90
47090;DHT22;32840;52.516;13.294;2024-01-15T08:25:02;4.60;99.90
47090;DHT22;32840;52.516;13.294;2024-01-15T08:27:47;4.50;99.90
47090;DHT22;32840;52.516;13.294;2024-01-15T08:30:33;4.60;99.90
47090;DHT22;32840;52.516;13.294;2024-01-15T08:33:18;4.60;99.90
47090;DHT22;32840;52.516;13.294;2024-01-15T08:36:03;4.60;99.90
47090;DHT22;32840;52.516;13.294;2024-01-15T08:38:48;4.60;99.90
47090;DHT22;32840;52.516;13.294;2024-01-15T08:41:33;4.60;99.90
47090;DHT22;32840;52.516;13.294;2024-01-15T08:44:18;4.70;99.90
47090;DHT22;32840;52.516;13.294;2024-01-15T08:47:03;4.80;99.90
47090;DHT22;32840;52.516;13.294;2024-01-15T08:49:47;4.80;99.90
47090;DHT22;32840;52.516;13.294;2024-01-15T08:52:32;4.90;99.90
47090;DHT22;32840;52.516;13.294;2024-01-15T08:55:17;4.90;99.90
47090;DHT22;32840;52.516;13.294;2024-01-15T08:58:04;4.90;99.90
47090;DHT22;32840;52.516;13.294;2024-01-15T09:00:49;4.90;99.90
47090;DHT22;32840;52.516;13.294;2024-01-15T09:03:35;5.00;99.90
47090;DHT22;32840;52.516;13.294;2024-01-15T09:06:21;4.90;99.90
47090;DHT22;32840;52.516;13.294;2024-01-15T09:09:09;5.00;99.90
47090;DHT22;32840;52.516;13.294;2024-01-15T09:11:58;4.90;99.90
47090;DHT22;32840;52.516;13.294;2024-01-15T09:14:58;4.80;99.90
47090;DHT22;32840;52.516;13.294;2024-01-15T09:17:49;4.90;99.90
47090;DHT22;32840;52.516;13.294;2024-01-15T09:20:36;4.90;99.90
47090;DHT22;32840;52.516;13.294;2024-01-15T09:26:44;4.80;99.90
47090;DHT22;32840;52.516;13.294;2024-01-15T09:29:29;4.90;99.90
47090;DHT22;32840;52.516;13.294;2024-01-15T09:32:14;4.90;99.90
47090;DHT22;32840;52.516;13.294;2024-01-15T09:35:00;5.00;99.90
47090;DHT22;32840;52.516;13.294;2024-01-15T09:37:45;5.00;99.90
47090;DHT22;32840;52.516;13.294;2024-01-15T09:40:31;5.00;99.90
47090;DHT22;32840;52.516;13.294;2024-01-15T09:43:18;4.90;99.90
47090;DHT22;32840;52.516;13.294;2024-01-15T09:46:03;4.90;99.90
47090;DHT22;32840;52.516;13.294;2024-01-15T09:48:48;4.80;99.90
47090;DHT22;32840;52.516;13.294;2024-01-15T09:51:35;4.90;99.90
47090;DHT22;32840;52.516;13.294;2024-01-15T09:54:21;4.80;99.90
47090;DHT22;32840;52.516;13.294;2024-01-15T09:57:05;4.90;99.90
47090;DHT22;32840;52.516;13.294;2024-01-15T09:59:52;5.00;99.90
47090;DHT22;32840;52.516;13.294;2024-01-15T10:02:39;5.00;99.90
47090;DHT22;32840;52.516;13.294;2024-01-15T10:05:24;5.10;99.90
47090;DHT22;32840;52.516;13.294;2024-01-15T10:08:09;5.10;99.90
47090;DHT22;32840;52.516;13.294;2024-01-15T10:10:55;5.20;99.90
47090;DHT22;32840;52.516;13.294;2024-01-15T10:13:40;5.20;99.90
47090;DHT22;32840;52.516;13.294;2024-01-15T10:16:29;5.30;99.90
47090;DHT22;32840;52.516;13.294;2024-01-15T10:19:15;5.30;99.90
47090;DHT22;32840;52.516;13.294;2024-01-15T10:22:00;5.30;99.90
47090;DHT22;32840;52.516;13.294;2024-01-15T10:24:45;5.40;99.90
47090;DHT22;32840;52.516;13.294;2024-01-15T10:27:31;5.30;99.90
47090;DHT22;32840;52.516;13.294;2024-01-15T10:30:16;5.40;99.90
47090;DHT22;32840;52.516;13.294;2024-01-15T10:33:03;5.50;99.90
47090;DHT22;32840;52.516;13.294;2024-01-15T10:35:48;5.60;99.90
47090;DHT22;32840;52.516;13.294;2024-01-15T10:38:33;5.60;99.90
47090;DHT22;32840;52.516;13.294;2024-01-15T10:41:18;5.50;99.90
47090;DHT22;32840;52.516;13.294;2024-01-15T10:44:03;5.40;99.90
47090;DHT22;32840;52.516;13.294;2024-01-15T10:46:49;5.40;99.90
47090;DHT22;32840;52.516;13.294;2024-01-15T10:49:35;5.30;99.90
47090;DHT22;32840;52.516;13.294;2024-01-15T10:52:21;5.40;99.90
47090;DHT22;32840;52.516;13.294;2024-01-15T10:55:10;5.40;99.90
47090;DHT22;32840;52.516;13.294;2024-01-15T10:57:55;5.40;99.90
47090;DHT22;32840;52.516;13.294;2024-01-15T11:00:41;5.40;99.90
47090;DHT22;32840;52.516;13.294;2024-01-15T11:03:26;5.50;99.90
47090;DHT22;32840;52.516;13.294;2024-01-15T11:06:18;5.50;99.90
47090;DHT22;32840;52.516;13.294;2024-01-15T11:09:04;5.50;99.90
47090;DHT22;32840;52.516;13.294;2024-01-15T11:11:52;5.60;99.90
47090;DHT22;32840;52.516;13.294;2024-01-15T11:14:42;5.60;99.90
47090;DHT22;32840;52.516;13.294;2024-01-15T11:17:58;5.50;99.90
47090;DHT22;32840;52.516;13.294;2024-01-15T11:24:01;5.40;99.90
47090;DHT22;32840;52.516;13.294;2024-01-15T11:26:46;5.40;99.90
47090;DHT22;32840;52.516;13.294;2024-01-15T11:29:36;5.40;99.90
47090;DHT22;32840;52.516;13.294;2024-01-15T11:32:33;5.30;99.90
47090;DHT22;32840;52.516;13.294;2024-01-15T11:35:18;5.40;99.90
47090;DHT22;32840;52.516;13.294;2024-01-15T11:38:04;5.40;99.90
47090;DHT22;32840;52.516;13.294;2024-01-15T11:40:51;5.40;99.90
47090;DHT22;32840;52.516;13.294;2024-01-15T11:43:39;5.40;99.90
47090;DHT22;32840;52.516;13.294;2024-01-15T11:46:25;5.30;99.90
47090;DHT22;32840;52.516;13.294;2024-01-15T11:52:16;5.30;99.90
47090;DHT22;32840;52.516;13.294;2024-01-15T11:57:57;5.10;99.90
47090;DHT22;32840;52.516;13.294;2024-01-15T12:00:47;5.10;99.90
47090;DHT22;32840;52.516;13.294;2024-01-15T12:03:34;5.00;99.90
47090;DHT22;32840;52.516;13.294;2024-01-15T12:06:19;4.90;99.90
47090;DHT22;32840;52.516;13.294;2024-01-15T12:09:07;5.00;99.90
47090;DHT22;32840;52.516;13.294;2024-01-15T12:12:12;5.00;99.90
47090;DHT22;32840;52.516;13.294;2024-01-15T12:15:00;5.00;99.90
47090;DHT22;32840;52.516;13.294;2024-01-15T12:17:45;5.00;99.90
47090;DHT22;32840;52.516;13.294;2024-01-15T12:20:32;4.90;99.90
47090;DHT22;32840;52.516;13.294;2024-01-15T12:23:20;4.80;99.90
47090;DHT22;32840;52.516;13.294;2024-01-15T12:26:05;4.90;99.90
47090;DHT22;32840;52.516;13.294;2024-01-15T12:28:51;4.90;99.90
47090;DHT22;32840;52.516;13.294;2024-01-15T12:31:35;5.00;99.90
47090;DHT22;32840;52.516;13.294;2024-01-15T12:34:20;5.00;99.90
47090;DHT22;32840;52.516;13.294;2024-01-15T12:37:08;5.00;99.90
47090;DHT22;32840;52.516;13.294;2024-01-15T12:39:53;4.90;99.90
47090;DHT22;32840;52.516;13.294;2024-01-15T12:42:41;4.80;99.90
47090;DHT22;32840;52.516;13.294;2024-01-15T12:45:26;4.80;99.90
47090;DHT22;32840;52.516;13.294;2024-01-15T12:48:11;4.70;99.90
47090;DHT22;32840;52.516;13.294;2024-01-15T12:50:58;4.60;99.90
47090;DHT22;32840;52.516;13.294;2024-01-15T12:53:42;4.60;99.90
47090;DHT22;32840;52.516;13.294;2024-01-15T12:56:27;4.70;99.90
47090;DHT22;32840;52.516;13.294;2024-01-15T12:59:12;4.70;99.90
47090;DHT22;32840;52.516;13.294;2024-01-15T13:01:58;4.60;99.90
47090;DHT22;32840;52.516;13.294;2024-01-15T13:04:43;4.70;99.90
47090;DHT22;32840;52.516;13.294;2024-01-15T13:07:28;4.70;99.90
47090;DHT22;32840;52.516;13.294;2024-01-15T13:10:15;4.80;99.90
47090;DHT22;32840;52.516;13.294;2024-01-15T13:13:01;4.80;99.90
47090;DHT22;32840;52.516;13.294;2024-01-15T13:15:46;4.80;99.90
47090;DHT22;32840;52.516;13.294;2024-01-15T13:18:31;4.80;99.90
47090;DHT22;32840;52.516;13.294;2024-01-15T13:21:16;4.80;99.90
47090;DHT22;32840;52.516;13.294;2024-01-15T13:24:01;4.80;99.90
47090;DHT22;32840;52.516;13.294;2024-01-15T13:26:47;4.80;99.90
47090;DHT22;32840;52.516;13.294;2024-01-15T13:29:32;4.80;99.90
47090;DHT22;32840;52.516;13.294;2024-01-15T13:32:27;4.80;99.90
47090;DHT22;32840;52.516;13.294;2024-01-15T13:35:13;4.70;99.90
47090;DHT22;32840;52.516;13.294;2024-01-15T13:37:58;4.60;99.90
47090;DHT22;32840;52.516;13.294;2024-01-15T13:40:46;4.70;99.90
47090;DHT22;32840;52.516;13.294;2024-01-15T13:43:31;4.70;99.90
47090;DHT22;32840;52.516;13.294;2024-01-15T13:46:24;4.70;99.90
47090;DHT22;32840;52.516;13.294;2024-01-15T13:49:11;4.70;99.90
47090;DHT22;32840;52.516;13.294;2024-01-15T13:51:59;4.70;99.90
47090;DHT22;32840;52.516;13.294;2024-01-15T13:54:43;4.80;99.90
47090;DHT22;32840;52.516;13.294;2024-01-15T13:57:34;4.70;99.90
47090;DHT22;32840;52.516;13.294;2024-01-15T14:00:18;4.80;99.90
47090;DHT22;32840;52.516;13.294;2024-01-15T14:03:07;4.70;99.90
47090;DHT22;32840;52.516;13.294;2024-01-15T14:05:54;4.80;99.90
47090;DHT22;32840;52.516;13.294;2024-01-15T14:08:41;4.80;99.90
47090;DHT22;32840;52.516;13.294;2024-01-15T14:11:26;4.70;99.90
47090;DHT22;32840;52.516;13.294;2024-01-15T14:14:21;4.60;99.90
47090;DHT22;32840;52.516;13.294;2024-01-15T14:17:06;4.70;99.90
47090;DHT22;32840;52.516;13.294;2024-01-15T14:19:50;4.70;99.90
47090;DHT22;32840;52.516;13.294;2024-01-15T14:22:35;4.70;99.90
47090;DHT22;32840;52.516;13.294;2024-01-15T14:25:21;4.70;99.90
47090;DHT22;32840;52.516;13.294;2024-01-15T14:28:09;4.70;99.90
47090;DHT22;32840;52.516;13.294;2024-01-15T14:30:57;4.70;99.90
47090;DHT22;32840;52.516;13.294;2024-01-15T14:33:49;4.70;99.90
47090;DHT22;32840;52.516;13.294;2024-01-15T14:36:35;4.70;99.90
47090;DHT22;32840;52.516;13.294;2024-01-15T14:39:27;4.70;99.90
47090;DHT22;32840;52.516;13.294;2024-01-15T14:42:14;4.70;99.90
47090;DHT22;32840;52.516;13.294;2024-01-15T14:45:01;4.60;99.90
47090;DHT22;32840;52.516;13.294;2024-01-15T14:47:50;4.60;99.90
47090;DHT22;32840;52.516;13.294;2024-01-15T14:50:35;4.60;99.90
47090;DHT22;32840;52.516;13.294;2024-01-15T14:53:20;4.50;99.90
47090;DHT22;32840;52.516;13.294;2024-01-15T14:56:12;4.50;99.90
47090;DHT22;32840;52.516;13.294;2024-01-15T14:59:02;4.50;99.90
47090;DHT22;32840;52.516;13.294;2024-01-15T15:01:50;4.40;99.90
47090;DHT22;32840;52.516;13.294;2024-01-15T15:04:35;4.40;99.90
47090;DHT22;32840;52.516;13.294;2024-01-15T15:07:22;4.50;99.90
47090;DHT22;32840;52.516;13.294;2024-01-15T15:10:10;4.50;99.90
47090;DHT22;32840;52.516;13.294;2024-01-15T15:12:56;4.50;99.90
47090;DHT22;32840;52.516;13.294;2024-01-15T15:15:44;4.60;99.90
47090;DHT22;32840;52.516;13.294;2024-01-15T15:18:30;4.60;99.90
47090;DHT22;32840;52.516;13.294;2024-01-15T15:21:17;4.60;99.90
47090;DHT22;32840;52.516;13.294;2024-01-15T15:24:03;4.60;99.90
47090;DHT22;32840;52.516;13.294;2024-01-15T15:26:49;4.60;99.90
47090;DHT22;32840;52.516;13.294;2024-01-15T15:29:35;4.60;99.90
47090;DHT22;32840;52.516;13.294;2024-01-15T15:32:26;4.60;99.90
47090;DHT22;32840;52.516;13.294;2024-01-15T15:35:19;4.60;99.90
47090;DHT22;32840;52.516;13.294;2024-01-15T15:38:06;4.50;99.90
47090;DHT22;32840;52.516;13.294;2024-01-15T15:40:55;4.40;99.90
47090;DHT22;32840;52.516;13.294;2024-01-15T15:43:41;4.30;99.90
47090;DHT22;32840;52.516;13.294;2024-01-15T15:46:27;4.40;99.90
47090;DHT22;32840;52.516;13.294;2024-01-15T15:49:13;4.50;99.90
47090;DHT22;32840;52.516;13.294;2024-01-15T15:51:59;4.50;99.90
47090;DHT22;32840;52.516;13.294;2024-01-15T15:54:44;4.50;99.90
47090;DHT22;32840;52.516;13.294;2024-01-15T15:57:29;4.50;99.90
47090;DHT22;32840;52.516;13.294;2024-01-15T16:00:14;4.50;99.90
47090;DHT22;32840;52.516;13.294;2024-01-15T16:02:59;4.50;99.90
47090;DHT22;32840;52.516;13.294;2024-01-15T16:05:45;4.50;99.90
47090;DHT22;32840;52.516;13.294;2024-01-15T16:08:31;4.50;99.90
47090;DHT22;32840;52.516;13.294;2024-01-15T16:11:23;4.50;99.90
47090;DHT22;32840;52.516;13.294;2024-01-15T16:14:17;4.30;99.90
47090;DHT22;32840;52.516;13.294;2024-01-15T16:17:19;4.30;99.90
47090;DHT22;32840;52.516;13.294;2024-01-15T16:20:35;4.30;99.90
47090;DHT22;32840;52.516;13.294;2024-01-15T16:23:33;4.20;99.90
47090;DHT22;32840;52.516;13.294;2024-01-15T16:26:52;4.20;99.90
47090;DHT22;32840;52.516;13.294;2024-01-15T16:29:44;4.20;99.90
47090;DHT22;32840;52.516;13.294;2024-01-15T16:36:10;4.20;99.90
47090;DHT22;32840;52.516;13.294;2024-01-15T16:38:55;4.00;99.90
47090;DHT22;32840;52.516;13.294;2024-01-15T16:42:07;4.00;99.90
47090;DHT22;32840;52.516;13.294;2024-01-15T16:45:00;3.80;99.90
47090;DHT22;32840;52.516;13.294;2024-01-15T16:48:11;3.90;99.90
47090;DHT22;32840;52.516;13.294;2024-01-15T16:51:23;3.80;99.90
47090;DHT22;32840;52.516;13.294;2024-01-15T16:54:33;3.70;99.90
47090;DHT22;32840;52.516;13.294;2024-01-15T17:00:31;3.80;99.90
47090;DHT22;32840;52.516;13.294;2024-01-15T17:03:27;3.80;99.90
47090;DHT22;32840;52.516;13.294;2024-01-15T17:06:38;3.70;99.90
47090;DHT22;32840;52.516;13.294;2024-01-15T17:09:27;3.70;99.90
47090;DHT22;32840;52.516;13.294;2024-01-15T17:12:44;3.70;99.90
47090;DHT22;32840;52.516;13.294;2024-01-15T17:15:40;3.70;99.90
47090;DHT22;32840;52.516;13.294;2024-01-15T17:18:45;3.60;99.90
47090;DHT22;32840;52.516;13.294;2024-01-15T17:21:30;3.60;99.90
47090;DHT22;32840;52.516;13.294;2024-01-15T17:24:18;3.60;99.90
47090;DHT22;32840;52.516;13.294;2024-01-15T17:27:07;3.50;99.90
47090;DHT22;32840;52.516;13.294;2024-01-15T17:29:52;3.60;99.90
47090;DHT22;32840;52.516;13.294;2024-01-15T17:32:39;3.70;99.90
47090;DHT22;32840;52.516;13.294;2024-01-15T17:35:25;3.60;99.90
47090;DHT22;32840;52.516;13.294;2024-01-15T17:38:10;3.60;99.90
47090;DHT22;32840;52.516;13.294;2024-01-15T17:40:58;3.60;99.90
47090;DHT22;32840;52.516;13.294;2024-01-15T17:43:42;3.60;99.90
47090;DHT22;32840;52.516;13.294;2024-01-15T17:46:27;3.70;99.90
47090;DHT22;32840;52.516;13.294;2024-01-15T17:49:12;3.70;99.90
47090;DHT22;32840;52.516;13.294;2024-01-15T17:52:22;3.80;99.90
47090;DHT22;32840;52.516;13.294;2024-01-15T17:55:07;3.80;99.90